createdAt,value
2018-01-12T00:02:15.882Z,81.50
2018-01-12T00:04:43.605Z,81.20
2018-01-12T00:07:11.233Z,81.30
2018-01-12T00:09:38.865Z,81.10
2018-01-12T00:12:06.541Z,81.30
2018-01-12T00:14:35.020Z,80.80
2018-01-12T00:17:02.831Z,80.80
2018-01-12T00:19:30.612Z,80.60
2018-01-12T00:21:58.281Z,80.90
2018-01-12T00:24:27.042Z,80.80
2018-01-12T00:26:54.861Z,80.80
2018-01-12T00:29:22.542Z,80.70
2018-01-12T00:31:50.237Z,80.80
2018-01-12T00:34:17.969Z,80.50
2018-01-12T00:36:45.766Z,80.80
2018-01-12T00:39:14.308Z,80.80
2018-01-12T00:41:42.149Z,80.70
2018-01-12T00:44:09.897Z,80.60
2018-01-12T00:46:37.656Z,80.70
2018-01-12T00:49:05.394Z,80.60
2018-01-12T00:51:33.159Z,80.80
2018-01-12T00:54:00.926Z,80.60
2018-01-12T00:56:28.649Z,80.80
2018-01-12T00:58:56.346Z,80.70
2018-01-12T01:01:24.873Z,81.10
2018-01-12T01:03:52.518Z,81.10
2018-01-12T01:06:20.226Z,80.90
2018-01-12T01:08:47.948Z,80.20
2018-01-12T01:11:16.462Z,81.10
2018-01-12T01:13:44.244Z,81.10
2018-01-12T01:16:11.856Z,80.90
2018-01-12T01:18:39.545Z,80.80
2018-01-12T01:21:07.280Z,80.80
2018-01-12T01:23:34.971Z,80.70
2018-01-12T01:26:02.675Z,80.40
2018-01-12T01:28:31.035Z,81.10
2018-01-12T01:30:58.687Z,81.00
2018-01-12T01:33:26.374Z,80.80
2018-01-12T01:35:54.067Z,80.90
2018-01-12T01:38:21.800Z,80.90
2018-01-12T01:40:49.607Z,80.70
2018-01-12T01:43:17.213Z,80.60
2018-01-12T01:45:44.912Z,80.90
2018-01-12T01:48:12.534Z,81.10
2018-01-12T01:50:40.263Z,81.00
2018-01-12T01:53:07.854Z,81.00
2018-01-12T01:55:36.475Z,81.20
2018-01-12T01:58:04.336Z,81.10
2018-01-12T02:00:31.954Z,80.70
2018-01-12T02:02:59.773Z,80.20
2018-01-12T02:05:27.522Z,80.50
2018-01-12T02:07:55.327Z,80.70
2018-01-12T02:10:23.061Z,80.50
2018-01-12T02:12:51.434Z,80.90
2018-01-12T02:15:19.993Z,80.70
2018-01-12T02:17:47.671Z,80.60
2018-01-12T02:20:15.400Z,80.90
2018-01-12T02:22:43.092Z,80.90
2018-01-12T02:25:10.875Z,80.60
2018-01-12T02:27:38.499Z,80.60
2018-01-12T02:30:06.143Z,80.80
2018-01-12T02:32:34.662Z,80.40
2018-01-12T02:35:02.337Z,80.30
2018-01-12T02:37:30.066Z,80.40
2018-01-12T02:39:57.769Z,80.50
2018-01-12T02:42:26.294Z,80.20
2018-01-12T02:44:54.082Z,80.20
2018-01-12T02:47:21.923Z,80.40
2018-01-12T02:49:49.667Z,80.80
2018-01-12T02:52:18.153Z,80.90
2018-01-12T02:54:46.001Z,80.90
2018-01-12T02:57:13.855Z,81.10
2018-01-12T02:59:41.630Z,81.10
2018-01-12T03:02:09.668Z,81.20
2018-01-12T03:04:37.536Z,81.00
2018-01-12T03:07:05.263Z,80.70
2018-01-12T03:09:32.993Z,80.50
2018-01-12T03:12:00.647Z,80.70
2018-01-12T03:14:28.302Z,80.60
2018-01-12T03:16:56.897Z,80.70
2018-01-12T03:19:25.268Z,81.50
2018-01-12T03:21:52.922Z,81.40
2018-01-12T03:24:20.600Z,81.20
2018-01-12T03:26:48.515Z,81.10
2018-01-12T03:29:16.450Z,81.20
2018-01-12T03:31:44.237Z,81.80
2018-01-12T03:34:12.337Z,81.10
2018-01-12T03:36:40.066Z,81.10
2018-01-12T03:39:08.498Z,81.30
2018-01-12T03:41:36.266Z,81.30
2018-01-12T03:44:03.931Z,81.50
2018-01-12T03:46:31.591Z,81.10
2018-01-12T03:48:59.466Z,80.70
2018-01-12T03:51:27.107Z,80.50
2018-01-12T03:53:54.807Z,81.20
2018-01-12T03:56:22.516Z,81.10
2018-01-12T03:58:50.230Z,81.10
2018-01-12T04:01:18.965Z,80.60
2018-01-12T04:03:46.617Z,80.50
2018-01-12T04:06:15.118Z,81.10
2018-01-12T04:08:43.099Z,81.10
2018-01-12T04:11:10.822Z,81.10
2018-01-12T04:13:38.647Z,81.50
2018-01-12T04:16:08.121Z,81.70
2018-01-12T04:18:35.891Z,81.50
2018-01-12T04:21:03.877Z,81.70
2018-01-12T04:23:31.572Z,81.70
2018-01-12T04:25:59.234Z,81.70
2018-01-12T04:28:27.088Z,80.80
2018-01-12T04:30:54.891Z,81.00
2018-01-12T04:33:22.805Z,80.80
2018-01-12T04:35:50.488Z,80.90
2018-01-12T04:38:18.264Z,81.10
2018-01-12T04:40:45.952Z,81.40
2018-01-12T04:43:13.633Z,81.60
2018-01-12T04:45:41.261Z,81.30
2018-01-12T04:48:09.745Z,81.70
2018-01-12T04:50:38.248Z,81.30
2018-01-12T04:53:05.946Z,81.30
2018-01-12T04:55:34.388Z,81.40
2018-01-12T04:58:02.918Z,81.50
2018-01-12T05:00:30.630Z,81.50
2018-01-12T05:02:59.204Z,81.30
2018-01-12T05:05:26.923Z,81.20
2018-01-12T05:07:55.423Z,81.30
2018-01-12T05:10:23.192Z,81.20
2018-01-12T05:12:51.046Z,81.30
2018-01-12T05:15:18.791Z,81.40
2018-01-12T05:17:46.436Z,81.50
2018-01-12T05:20:14.200Z,81.20
2018-01-12T05:22:41.869Z,81.30
2018-01-12T05:25:09.589Z,81.10
2018-01-12T05:27:37.290Z,81.30
2018-01-12T05:30:04.934Z,81.00
2018-01-12T05:32:32.735Z,81.50
2018-01-12T05:35:00.382Z,81.40
2018-01-12T05:37:28.046Z,82.10
2018-01-12T05:39:55.761Z,82.10
2018-01-12T05:42:23.551Z,82.50
2018-01-12T05:44:52.076Z,82.10
2018-01-12T05:47:19.799Z,82.10
2018-01-12T05:49:48.279Z,81.70
2018-01-12T05:52:15.963Z,81.60
2018-01-12T05:54:43.649Z,81.90
2018-01-12T05:57:11.393Z,81.70
2018-01-12T05:59:39.323Z,81.70
2018-01-12T06:02:18.856Z,82.00
2018-01-12T06:04:59.127Z,81.60
2018-01-12T06:07:26.781Z,81.60
2018-01-12T06:09:54.417Z,81.50
2018-01-12T06:12:22.205Z,81.30
2018-01-12T06:14:49.931Z,81.80
2018-01-12T06:17:17.597Z,81.30
2018-01-12T06:19:45.330Z,81.70
2018-01-12T06:22:13.069Z,82.10
2018-01-12T06:24:40.855Z,82.10
2018-01-12T06:27:08.513Z,82.00
2018-01-12T06:29:36.967Z,81.90
2018-01-12T06:32:05.004Z,81.80
2018-01-12T06:34:32.595Z,81.80
2018-01-12T06:37:00.242Z,81.80
2018-01-12T06:39:27.874Z,82.00
2018-01-12T06:41:55.493Z,82.00
2018-01-12T06:44:23.201Z,82.00
2018-01-12T06:46:50.860Z,82.00
2018-01-12T06:49:18.526Z,82.00
2018-01-12T06:51:46.141Z,82.00
2018-01-12T06:54:13.839Z,82.80
2018-01-12T06:56:42.355Z,82.20
2018-01-12T06:59:11.050Z,82.10
2018-01-12T07:01:39.115Z,82.00
2018-01-12T07:04:08.881Z,82.10
2018-01-12T07:06:37.372Z,82.20
2018-01-12T07:09:06.281Z,82.10
2018-01-12T07:11:35.149Z,82.10
2018-01-12T07:14:03.134Z,81.90
2018-01-12T07:16:30.750Z,81.90
2018-01-12T07:18:58.589Z,82.00
2018-01-12T07:21:38.009Z,81.80
2018-01-12T07:24:05.909Z,81.90
2018-01-12T07:26:33.618Z,82.00
2018-01-12T07:29:01.337Z,81.60
2018-01-12T07:31:29.936Z,81.30
2018-01-12T07:33:57.625Z,81.20
2018-01-12T07:36:25.304Z,81.70
2018-01-12T07:38:52.936Z,81.90
2018-01-12T07:41:20.558Z,82.20
2018-01-12T07:43:48.231Z,82.20
2018-01-12T07:46:15.890Z,82.20
2018-01-12T07:48:43.589Z,82.20
2018-01-12T07:51:11.987Z,82.90
2018-01-12T07:53:40.365Z,82.00
2018-01-12T07:56:08.750Z,82.10
2018-01-12T07:58:37.129Z,81.90
2018-01-12T08:01:10.632Z,82.00
2018-01-12T08:03:39.008Z,81.70
2018-01-12T08:06:07.861Z,82.30
2018-01-12T08:08:35.604Z,82.70
2018-01-12T08:11:03.266Z,82.40
2018-01-12T08:13:30.935Z,82.30
2018-01-12T08:15:58.729Z,82.60
2018-01-12T08:18:27.413Z,82.40
2018-01-12T08:20:55.824Z,82.70
2018-01-12T08:23:23.464Z,82.60
2018-01-12T08:25:53.154Z,82.70
2018-01-12T08:28:21.034Z,82.60
2018-01-12T08:30:49.235Z,82.40
2018-01-12T08:33:17.091Z,81.90
2018-01-12T08:35:45.502Z,82.40
2018-01-12T08:38:13.213Z,82.30
2018-01-12T08:40:41.221Z,82.40
2018-01-12T08:43:08.856Z,81.50
2018-01-12T08:45:37.236Z,81.70
2018-01-12T08:48:05.708Z,81.10
2018-01-12T08:50:33.470Z,81.10
2018-01-12T08:53:01.875Z,81.40
2018-01-12T08:55:29.690Z,81.40
2018-01-12T08:57:57.337Z,81.80
2018-01-12T09:00:25.010Z,81.90
2018-01-12T09:02:52.708Z,82.00
2018-01-12T09:05:21.140Z,81.40
2018-01-12T09:07:48.756Z,81.30
2018-01-12T09:10:17.241Z,80.80
2018-01-12T09:12:45.116Z,80.80
2018-01-12T09:15:29.301Z,82.00
2018-01-12T09:18:00.823Z,82.10
2018-01-12T09:20:35.345Z,81.40
2018-01-12T09:23:26.805Z,81.90
2018-01-12T09:25:54.452Z,81.80
2018-01-12T09:28:22.051Z,81.40
2018-01-12T09:30:49.717Z,80.40
2018-01-12T09:33:17.341Z,80.80
2018-01-12T09:35:45.017Z,80.90
2018-01-12T09:38:20.523Z,80.60
2018-01-12T09:40:48.211Z,79.30
2018-01-12T09:43:15.967Z,79.40
2018-01-12T09:45:44.309Z,79.70
2018-01-12T09:48:38.071Z,79.60
2018-01-12T09:51:09.591Z,80.00
2018-01-12T09:53:37.305Z,79.80
2018-01-12T09:56:05.910Z,79.40
2018-01-12T09:58:33.597Z,79.30
2018-01-12T10:01:03.177Z,80.40
2018-01-12T10:03:31.611Z,79.50
2018-01-12T10:05:59.208Z,79.40
2018-01-12T10:08:26.902Z,79.40
2018-01-12T10:10:54.504Z,79.30
2018-01-12T10:13:22.120Z,80.70
2018-01-12T10:15:49.735Z,80.70
2018-01-12T10:18:35.156Z,80.00
2018-01-12T10:21:08.966Z,79.80
2018-01-12T10:23:37.378Z,79.80
2018-01-12T10:26:06.012Z,79.70
2018-01-12T10:28:34.438Z,79.80
2018-01-12T10:31:02.156Z,79.60
2018-01-12T10:33:42.644Z,79.50
2018-01-12T10:36:10.216Z,78.90
2018-01-12T10:38:37.826Z,79.40
2018-01-12T10:41:17.447Z,79.60
2018-01-12T10:43:45.030Z,79.20
2018-01-12T10:46:36.317Z,78.90
2018-01-12T10:49:08.918Z,79.20
2018-01-12T10:51:37.513Z,79.50
2018-01-12T10:54:05.100Z,78.90
2018-01-12T10:56:33.589Z,78.80
2018-01-12T10:59:02.008Z,78.40
2018-01-12T11:01:29.582Z,78.40
2018-01-12T11:03:57.314Z,79.00
2018-01-12T11:06:24.979Z,79.50
2018-01-12T11:08:52.665Z,78.70
2018-01-12T11:11:20.397Z,78.20
2018-01-12T11:13:48.012Z,77.90
2018-01-12T11:16:15.754Z,78.00
2018-01-12T11:18:43.392Z,77.70
2018-01-12T11:21:10.983Z,77.40
2018-01-12T11:23:38.665Z,77.20
2018-01-12T11:26:06.294Z,77.40
2018-01-12T11:28:33.903Z,76.70
2018-01-12T11:31:01.521Z,77.70
2018-01-12T11:33:29.229Z,77.60
2018-01-12T11:35:57.725Z,76.10
2018-01-12T11:38:25.349Z,76.00
2018-01-12T11:40:53.026Z,76.10
2018-01-12T11:43:20.840Z,76.40
2018-01-12T11:45:49.230Z,75.90
2018-01-12T11:48:16.810Z,75.80
2018-01-12T11:50:44.578Z,76.00
2018-01-12T11:53:12.162Z,76.70
2018-01-12T11:55:40.627Z,76.30
2018-01-12T11:58:08.281Z,76.20
2018-01-12T12:00:35.941Z,75.20
2018-01-12T12:03:03.593Z,75.40
2018-01-12T12:05:31.221Z,76.20
2018-01-12T12:07:58.821Z,76.70
2018-01-12T12:10:26.483Z,76.30
2018-01-12T12:12:54.156Z,75.60
2018-01-12T12:15:21.798Z,75.50
2018-01-12T12:17:49.395Z,76.00
2018-01-12T12:20:17.305Z,76.20
2018-01-12T12:22:44.921Z,76.30
2018-01-12T12:25:12.597Z,75.70
2018-01-12T12:27:40.213Z,74.80
2018-01-12T12:30:07.831Z,75.20
2018-01-12T12:32:36.258Z,75.60
2018-01-12T12:35:03.826Z,75.50
2018-01-12T12:37:31.482Z,75.30
2018-01-12T12:39:59.080Z,75.50
2018-01-12T12:42:26.776Z,75.70
2018-01-12T12:44:54.489Z,76.00
2018-01-12T12:47:22.104Z,75.30
2018-01-12T12:49:49.723Z,75.30
2018-01-12T12:52:17.306Z,74.00
2018-01-12T12:54:45.700Z,75.30
2018-01-12T12:57:13.301Z,75.20
2018-01-12T12:59:40.927Z,75.40
2018-01-12T13:02:08.576Z,76.10
2018-01-12T13:04:36.194Z,75.10
2018-01-12T13:07:03.843Z,75.00
2018-01-12T13:09:31.480Z,74.90
2018-01-12T13:11:59.084Z,75.50
2018-01-12T13:14:26.699Z,75.50
2018-01-12T13:16:54.449Z,74.60
2018-01-12T13:19:23.661Z,75.30
2018-01-12T13:21:51.274Z,75.20
2018-01-12T13:24:18.976Z,74.70
2018-01-12T13:26:47.366Z,74.80
2018-01-12T13:29:15.023Z,74.80
2018-01-12T13:31:42.646Z,75.40
2018-01-12T13:34:10.281Z,74.10
2018-01-12T13:36:37.864Z,73.80
2018-01-12T13:39:06.315Z,74.10
2018-01-12T13:41:33.950Z,74.00
2018-01-12T13:44:01.630Z,73.50
2018-01-12T13:46:29.298Z,72.60
2018-01-12T13:48:56.992Z,73.10
2018-01-12T13:51:24.558Z,73.20
2018-01-12T13:53:52.241Z,72.80
2018-01-12T13:56:19.859Z,72.60
2018-01-12T13:58:47.489Z,73.50
2018-01-12T14:01:15.058Z,71.50
2018-01-12T14:03:42.669Z,71.40
2018-01-12T14:06:10.307Z,72.90
2018-01-12T14:08:38.741Z,73.90
2018-01-12T14:11:06.320Z,73.90
2018-01-12T14:13:33.989Z,74.00
2018-01-12T14:16:02.406Z,73.80
2018-01-12T14:18:31.201Z,73.70
2018-01-12T14:20:58.837Z,73.40
2018-01-12T14:23:26.529Z,73.30
2018-01-12T14:25:54.253Z,74.00
2018-01-12T14:28:22.673Z,73.30
2018-01-12T14:30:50.294Z,73.30
2018-01-12T14:33:17.873Z,73.50
2018-01-12T14:35:54.070Z,75.00
2018-01-12T14:38:21.688Z,74.30
2018-01-12T14:40:50.088Z,74.60
2018-01-12T14:43:17.892Z,74.50
2018-01-12T14:45:45.508Z,74.50
2018-01-12T14:48:13.130Z,74.60
2018-01-12T14:50:40.813Z,74.60
2018-01-12T14:53:08.476Z,74.40
2018-01-12T14:55:36.665Z,74.20
2018-01-12T14:58:04.562Z,74.00
2018-01-12T15:00:32.207Z,73.60
2018-01-12T15:02:59.781Z,73.50
2018-01-12T15:05:27.948Z,73.70
2018-01-12T15:07:55.562Z,74.10
2018-01-12T15:10:23.162Z,74.40
2018-01-12T15:12:50.774Z,74.00
2018-01-12T15:15:19.348Z,74.20
2018-01-12T15:17:47.033Z,74.20
2018-01-12T15:20:15.079Z,74.40
2018-01-12T15:22:42.966Z,74.10
2018-01-12T15:25:10.613Z,74.50
2018-01-12T15:27:39.240Z,73.70
2018-01-12T15:30:07.059Z,73.70
2018-01-12T15:32:35.115Z,74.00
2018-01-12T15:35:04.362Z,73.90
2018-01-12T15:37:32.349Z,73.90
2018-01-12T15:40:00.019Z,74.00
2018-01-12T15:42:27.664Z,74.30
2018-01-12T15:44:55.281Z,74.20
2018-01-12T15:47:22.892Z,74.00
2018-01-12T15:49:50.486Z,74.00
2018-01-12T15:52:18.133Z,74.20
2018-01-12T15:54:45.709Z,74.20
2018-01-12T15:57:13.302Z,74.00
2018-01-12T15:59:40.937Z,74.10
2018-01-12T16:02:08.501Z,74.30
2018-01-12T16:04:36.108Z,74.10
2018-01-12T16:07:03.672Z,74.20
2018-01-12T16:09:31.379Z,74.10
2018-01-12T16:11:58.989Z,74.00
2018-01-12T16:14:26.583Z,73.50
2018-01-12T16:16:54.204Z,73.50
2018-01-12T16:19:21.790Z,73.70
2018-01-12T16:21:49.402Z,73.70
2018-01-12T16:24:17.021Z,73.60
2018-01-12T16:26:44.632Z,74.70
2018-01-12T16:29:12.219Z,74.10
2018-01-12T16:31:42.875Z,73.60
2018-01-12T16:34:10.472Z,73.70
2018-01-12T16:36:38.060Z,74.00
2018-01-12T16:39:06.403Z,73.80
2018-01-12T16:41:34.026Z,73.70
2018-01-12T16:44:01.704Z,73.50
2018-01-12T16:46:29.272Z,74.10
2018-01-12T16:48:56.920Z,73.80
2018-01-12T16:51:24.505Z,74.20
2018-01-12T16:53:52.117Z,73.90
2018-01-12T16:56:19.696Z,73.40
2018-01-12T16:58:47.358Z,74.00
2018-01-12T17:01:14.940Z,74.00
2018-01-12T17:03:42.614Z,73.90
2018-01-12T17:06:10.181Z,74.40
2018-01-12T17:08:37.786Z,73.90
2018-01-12T17:11:05.365Z,73.90
2018-01-12T17:13:33.248Z,74.40
2018-01-12T17:16:03.078Z,75.10
2018-01-12T17:18:32.573Z,74.00
2018-01-12T17:21:02.055Z,74.40
2018-01-12T17:23:31.601Z,74.90
2018-01-12T17:26:01.183Z,74.70
2018-01-12T17:28:30.391Z,74.70
2018-01-12T17:31:00.077Z,74.20
2018-01-12T17:33:29.909Z,74.10
2018-01-12T17:35:59.665Z,74.30
2018-01-12T17:38:30.992Z,74.60
2018-01-12T17:41:00.897Z,75.10
2018-01-12T17:43:33.367Z,74.90
2018-01-12T17:46:02.925Z,74.40
2018-01-12T17:48:31.249Z,74.10
2018-01-12T17:50:58.898Z,74.00
2018-01-12T17:53:27.238Z,74.80
2018-01-12T17:55:55.587Z,74.50
2018-01-12T17:58:23.193Z,74.50
2018-01-12T18:00:50.792Z,74.80
2018-01-12T18:03:18.403Z,75.00
2018-01-12T18:05:46.011Z,74.50
2018-01-12T18:08:13.629Z,74.20
2018-01-12T18:10:41.989Z,74.60
2018-01-12T18:13:09.594Z,74.60
2018-01-12T18:15:37.178Z,74.40
2018-01-12T18:18:04.814Z,74.40
2018-01-12T18:20:32.417Z,74.50
2018-01-12T18:23:00.120Z,74.60
2018-01-12T18:25:28.491Z,75.00
2018-01-12T18:27:56.845Z,75.20
2018-01-12T18:30:24.454Z,75.10
2018-01-12T18:32:52.046Z,74.60
2018-01-12T18:35:19.676Z,74.60
2018-01-12T18:37:47.311Z,74.90
2018-01-12T18:40:15.682Z,75.10
2018-01-12T18:42:43.296Z,75.00
2018-01-12T18:45:10.902Z,74.60
2018-01-12T18:47:38.505Z,74.40
2018-01-12T18:50:06.064Z,73.90
2018-01-12T18:52:33.713Z,74.50
2018-01-12T18:55:01.345Z,74.30
2018-01-12T18:57:28.957Z,74.70
2018-01-12T18:59:56.572Z,74.70
2018-01-12T19:02:24.181Z,75.00
2018-01-12T19:04:52.528Z,74.30
2018-01-12T19:07:20.174Z,74.30
2018-01-12T19:09:47.732Z,74.00
2018-01-12T19:12:18.150Z,73.70
2018-01-12T19:14:46.594Z,73.40
2018-01-12T19:17:14.222Z,73.90
2018-01-12T19:19:41.851Z,73.00
2018-01-12T19:22:09.467Z,73.00
2018-01-12T19:24:37.044Z,74.80
2018-01-12T19:27:04.630Z,75.10
2018-01-12T19:29:32.258Z,75.40
2018-01-12T19:31:59.834Z,75.40
2018-01-12T19:34:27.480Z,75.30
2018-01-12T19:36:55.100Z,75.40
2018-01-12T19:39:22.730Z,75.60
2018-01-12T19:41:50.308Z,75.90
2018-01-12T19:44:17.930Z,76.10
2018-01-12T19:46:45.521Z,75.60
2018-01-12T19:49:13.155Z,76.80
2018-01-12T19:51:40.743Z,76.10
2018-01-12T19:54:08.386Z,76.10
2018-01-12T19:56:35.956Z,75.90
2018-01-12T19:59:03.529Z,76.20
2018-01-12T20:01:32.171Z,76.10
2018-01-12T20:03:59.804Z,76.40
2018-01-12T20:06:28.175Z,76.70
2018-01-12T20:08:55.738Z,76.60
2018-01-12T20:11:24.161Z,77.00
2018-01-12T20:13:51.784Z,77.00
2018-01-12T20:16:20.144Z,77.00
2018-01-12T20:18:47.722Z,77.00
2018-01-12T20:21:16.146Z,76.60
2018-01-12T20:23:43.720Z,76.60
2018-01-12T20:26:11.354Z,76.20
2018-01-12T20:28:38.929Z,76.70
2018-01-12T20:31:06.548Z,77.30
2018-01-12T20:33:34.964Z,76.90
2018-01-12T20:36:02.600Z,76.80
2018-01-12T20:38:30.436Z,77.20
2018-01-12T20:40:58.041Z,77.90
2018-01-12T20:43:25.686Z,78.20
2018-01-12T20:45:54.034Z,77.20
2018-01-12T20:48:21.622Z,77.20
2018-01-12T20:50:49.261Z,77.40
2018-01-12T20:53:16.841Z,77.80
2018-01-12T20:55:45.204Z,77.80
2018-01-12T20:58:12.817Z,77.70
2018-01-12T21:00:40.425Z,77.70
2018-01-12T21:03:10.014Z,77.70
2018-01-12T21:05:37.632Z,77.80
2018-01-12T21:08:05.268Z,78.30
2018-01-12T21:10:32.832Z,77.70
2018-01-12T21:13:00.476Z,77.90
2018-01-12T21:15:28.069Z,77.80
2018-01-12T21:17:56.543Z,77.50
2018-01-12T21:20:24.890Z,77.20
2018-01-12T21:22:52.476Z,77.10
2018-01-12T21:25:20.105Z,77.70
2018-01-12T21:27:47.673Z,77.40
2018-01-12T21:30:15.248Z,77.70
2018-01-12T21:32:43.723Z,77.30
2018-01-12T21:35:11.300Z,77.30
2018-01-12T21:37:39.637Z,77.10
2018-01-12T21:40:07.230Z,77.00
2018-01-12T21:42:34.859Z,77.40
2018-01-12T21:45:02.456Z,77.60
2018-01-12T21:47:30.074Z,77.10
2018-01-12T21:49:57.682Z,77.50
2018-01-12T21:52:26.087Z,76.80
2018-01-12T21:54:53.833Z,76.70
2018-01-12T21:57:21.416Z,76.60
2018-01-12T21:59:49.045Z,76.60
2018-01-12T22:02:16.659Z,76.40
2018-01-12T22:04:44.317Z,76.00
2018-01-12T22:07:11.901Z,75.30
2018-01-12T22:09:39.504Z,74.60
2018-01-12T22:12:07.985Z,73.90
2018-01-12T22:14:36.373Z,74.10
2018-01-12T22:17:04.099Z,74.00
2018-01-12T22:19:31.755Z,74.20
2018-01-12T22:21:59.491Z,74.70
2018-01-12T22:24:27.113Z,74.80
2018-01-12T22:26:55.525Z,74.50
2018-01-12T22:29:23.139Z,74.40
2018-01-12T22:31:50.727Z,74.60
2018-01-12T22:34:18.361Z,74.00
2018-01-12T22:36:46.750Z,74.50
2018-01-12T22:39:15.153Z,74.50
2018-01-12T22:41:42.801Z,74.50
2018-01-12T22:44:11.190Z,75.00
2018-01-12T22:46:38.827Z,74.90
2018-01-12T22:49:06.419Z,74.90
2018-01-12T22:51:34.804Z,76.10
2018-01-12T22:54:02.386Z,76.00
2018-01-12T22:56:30.026Z,75.90
2018-01-12T22:58:57.598Z,76.30
2018-01-12T23:01:25.219Z,76.20
2018-01-12T23:03:52.838Z,76.90
2018-01-12T23:06:20.431Z,76.70
2018-01-12T23:08:48.067Z,76.80
2018-01-12T23:11:15.649Z,76.50
2018-01-12T23:13:43.261Z,74.80
2018-01-12T23:16:10.851Z,74.90
2018-01-12T23:18:38.440Z,75.80
2018-01-12T23:21:06.050Z,76.30
2018-01-12T23:23:33.679Z,76.50
2018-01-12T23:26:02.084Z,76.20
2018-01-12T23:28:29.672Z,76.20
2018-01-12T23:30:57.306Z,75.60
2018-01-12T23:33:24.885Z,75.40
2018-01-12T23:35:52.462Z,75.50
2018-01-12T23:38:20.110Z,75.20
2018-01-12T23:40:47.693Z,75.40
2018-01-12T23:43:15.262Z,74.40
2018-01-12T23:45:42.909Z,75.10
2018-01-12T23:48:10.480Z,75.50
2018-01-12T23:50:38.068Z,75.30
2018-01-12T23:53:06.475Z,74.60
2018-01-12T23:55:34.079Z,74.50
2018-01-12T23:58:01.673Z,74.30
